sensor_id;sensor_type;location;lat;lon;timestamp;P1;durP1;ratioP1;P2;durP2;ratioP2
10410;SDS011;5251;52.112;8.606;2023-07-29T00:01:20;1.50;;;1.40;;
10410;SDS011;5251;52.112;8.606;2023-07-29T00:03:45;1.65;;;1.55;;
10410;SDS011;5251;52.112;8.606;2023-07-29T00:06:11;1.70;;;1.60;;
10410;SDS011;5251;52.112;8.606;2023-07-29T00:08:37;1.80;;;1.70;;
10410;SDS011;5251;52.112;8.606;2023-07-29T00:11:02;1.65;;;1.55;;
10410;SDS011;5251;52.112;8.606;2023-07-29T00:13:28;1.95;;;1.42;;
10410;SDS011;5251;52.112;8.606;2023-07-29T00:15:54;3.20;;;1.83;;
10410;SDS011;5251;52.112;8.606;2023-07-29T00:18:20;1.42;;;1.33;;
10410;SDS011;5251;52.112;8.606;2023-07-29T00:20:47;1.80;;;1.70;;
10410;SDS011;5251;52.112;8.606;2023-07-29T00:23:12;1.70;;;1.60;;
10410;SDS011;5251;52.112;8.606;2023-07-29T00:25:38;1.92;;;1.73;;
10410;SDS011;5251;52.112;8.606;2023-07-29T00:28:04;1.85;;;1.65;;
10410;SDS011;5251;52.112;8.606;2023-07-29T00:30:29;2.55;;;1.60;;
10410;SDS011;5251;52.112;8.606;2023-07-29T00:32:55;2.33;;;1.52;;
10410;SDS011;5251;52.112;8.606;2023-07-29T00:35:20;1.88;;;1.73;;
10410;SDS011;5251;52.112;8.606;2023-07-29T00:37:46;1.52;;;1.42;;
10410;SDS011;5251;52.112;8.606;2023-07-29T00:40:15;1.77;;;1.67;;
10410;SDS011;5251;52.112;8.606;2023-07-29T00:42:45;2.80;;;1.80;;
10410;SDS011;5251;52.112;8.606;2023-07-29T00:45:11;2.00;;;1.85;;
10410;SDS011;5251;52.112;8.606;2023-07-29T00:47:37;1.67;;;1.40;;
10410;SDS011;5251;52.112;8.606;2023-07-29T00:50:03;3.25;;;1.77;;
10410;SDS011;5251;52.112;8.606;2023-07-29T00:52:29;2.03;;;1.50;;
10410;SDS011;5251;52.112;8.606;2023-07-29T00:54:55;1.92;;;1.80;;
10410;SDS011;5251;52.112;8.606;2023-07-29T00:57:21;4.07;;;1.90;;
10410;SDS011;5251;52.112;8.606;2023-07-29T00:59:47;1.85;;;1.73;;
10410;SDS011;5251;52.112;8.606;2023-07-29T01:02:13;1.80;;;1.67;;
10410;SDS011;5251;52.112;8.606;2023-07-29T01:04:38;2.13;;;1.92;;
10410;SDS011;5251;52.112;8.606;2023-07-29T01:07:11;1.90;;;1.80;;
10410;SDS011;5251;52.112;8.606;2023-07-29T01:12:44;2.08;;;1.77;;
10410;SDS011;5251;52.112;8.606;2023-07-29T01:15:33;1.70;;;1.60;;
10410;SDS011;5251;52.112;8.606;2023-07-29T01:18:10;2.05;;;1.80;;
10410;SDS011;5251;52.112;8.606;2023-07-29T01:20:42;1.80;;;1.70;;
10410;SDS011;5251;52.112;8.606;2023-07-29T01:23:10;1.75;;;1.65;;
10410;SDS011;5251;52.112;8.606;2023-07-29T01:25:36;2.13;;;1.92;;
10410;SDS011;5251;52.112;8.606;2023-07-29T01:28:02;3.03;;;2.15;;
10410;SDS011;5251;52.112;8.606;2023-07-29T01:30:33;2.08;;;1.90;;
10410;SDS011;5251;52.112;8.606;2023-07-29T01:33:16;2.00;;;1.80;;
10410;SDS011;5251;52.112;8.606;2023-07-29T01:35:50;1.90;;;1.80;;
10410;SDS011;5251;52.112;8.606;2023-07-29T01:38:29;1.80;;;1.70;;
10410;SDS011;5251;52.112;8.606;2023-07-29T01:41:00;2.00;;;1.80;;
10410;SDS011;5251;52.112;8.606;2023-07-29T01:43:30;2.42;;;2.15;;
10410;SDS011;5251;52.112;8.606;2023-07-29T01:45:56;2.10;;;1.90;;
10410;SDS011;5251;52.112;8.606;2023-07-29T01:48:22;1.90;;;1.80;;
10410;SDS011;5251;52.112;8.606;2023-07-29T01:50:48;2.30;;;2.00;;
10410;SDS011;5251;52.112;8.606;2023-07-29T01:53:14;2.58;;;2.20;;
10410;SDS011;5251;52.112;8.606;2023-07-29T01:55:40;1.90;;;1.80;;
10410;SDS011;5251;52.112;8.606;2023-07-29T01:58:07;2.20;;;2.00;;
10410;SDS011;5251;52.112;8.606;2023-07-29T02:00:33;3.53;;;1.90;;
10410;SDS011;5251;52.112;8.606;2023-07-29T02:02:58;2.20;;;2.03;;
10410;SDS011;5251;52.112;8.606;2023-07-29T02:05:24;1.88;;;1.77;;
10410;SDS011;5251;52.112;8.606;2023-07-29T02:07:49;2.10;;;1.90;;
10410;SDS011;5251;52.112;8.606;2023-07-29T02:10:15;1.95;;;1.85;;
10410;SDS011;5251;52.112;8.606;2023-07-29T02:12:41;2.00;;;1.80;;
10410;SDS011;5251;52.112;8.606;2023-07-29T02:15:06;1.83;;;1.73;;
10410;SDS011;5251;52.112;8.606;2023-07-29T02:17:33;2.65;;;1.70;;
10410;SDS011;5251;52.112;8.606;2023-07-29T02:19:59;2.92;;;1.80;;
10410;SDS011;5251;52.112;8.606;2023-07-29T02:22:25;1.80;;;1.70;;
10410;SDS011;5251;52.112;8.606;2023-07-29T02:24:50;2.10;;;1.90;;
10410;SDS011;5251;52.112;8.606;2023-07-29T02:27:16;1.80;;;1.70;;
10410;SDS011;5251;52.112;8.606;2023-07-29T02:29:41;2.00;;;1.80;;
10410;SDS011;5251;52.112;8.606;2023-07-29T02:32:07;2.33;;;1.63;;
10410;SDS011;5251;52.112;8.606;2023-07-29T02:34:33;2.10;;;1.95;;
10410;SDS011;5251;52.112;8.606;2023-07-29T02:36:59;2.08;;;1.98;;
10410;SDS011;5251;52.112;8.606;2023-07-29T02:39:25;2.08;;;1.88;;
10410;SDS011;5251;52.112;8.606;2023-07-29T02:41:50;5.53;;;2.17;;
10410;SDS011;5251;52.112;8.606;2023-07-29T02:44:16;2.40;;;2.20;;
10410;SDS011;5251;52.112;8.606;2023-07-29T02:46:42;2.42;;;1.90;;
10410;SDS011;5251;52.112;8.606;2023-07-29T02:49:08;2.30;;;1.95;;
10410;SDS011;5251;52.112;8.606;2023-07-29T02:51:34;2.38;;;2.00;;
10410;SDS011;5251;52.112;8.606;2023-07-29T02:53:59;2.00;;;1.90;;
10410;SDS011;5251;52.112;8.606;2023-07-29T02:56:25;2.15;;;2.05;;
10410;SDS011;5251;52.112;8.606;2023-07-29T02:58:50;2.13;;;1.90;;
10410;SDS011;5251;52.112;8.606;2023-07-29T03:01:16;2.53;;;1.95;;
10410;SDS011;5251;52.112;8.606;2023-07-29T03:03:42;1.88;;;1.77;;
10410;SDS011;5251;52.112;8.606;2023-07-29T03:06:09;3.95;;;1.92;;
10410;SDS011;5251;52.112;8.606;2023-07-29T03:08:36;1.92;;;1.83;;
10410;SDS011;5251;52.112;8.606;2023-07-29T03:11:08;2.22;;;2.03;;
10410;SDS011;5251;52.112;8.606;2023-07-29T03:13:35;2.20;;;1.98;;
10410;SDS011;5251;52.112;8.606;2023-07-29T03:16:05;2.95;;;1.90;;
10410;SDS011;5251;52.112;8.606;2023-07-29T03:18:34;1.88;;;1.77;;
10410;SDS011;5251;52.112;8.606;2023-07-29T03:21:00;1.90;;;1.80;;
10410;SDS011;5251;52.112;8.606;2023-07-29T03:23:27;2.63;;;1.88;;
10410;SDS011;5251;52.112;8.606;2023-07-29T03:25:57;1.98;;;1.88;;
10410;SDS011;5251;52.112;8.606;2023-07-29T03:28:26;1.83;;;1.73;;
10410;SDS011;5251;52.112;8.606;2023-07-29T03:30:54;2.00;;;1.80;;
10410;SDS011;5251;52.112;8.606;2023-07-29T03:33:20;2.00;;;1.90;;
10410;SDS011;5251;52.112;8.606;2023-07-29T03:35:45;2.40;;;2.17;;
10410;SDS011;5251;52.112;8.606;2023-07-29T03:38:11;1.95;;;1.85;;
10410;SDS011;5251;52.112;8.606;2023-07-29T03:40:40;2.17;;;2.08;;
10410;SDS011;5251;52.112;8.606;2023-07-29T03:43:06;2.10;;;2.00;;
10410;SDS011;5251;52.112;8.606;2023-07-29T03:45:32;1.98;;;1.88;;
10410;SDS011;5251;52.112;8.606;2023-07-29T03:47:58;2.05;;;1.95;;
10410;SDS011;5251;52.112;8.606;2023-07-29T03:50:24;1.90;;;1.80;;
10410;SDS011;5251;52.112;8.606;2023-07-29T03:52:50;1.92;;;1.83;;
10410;SDS011;5251;52.112;8.606;2023-07-29T03:55:16;3.25;;;2.10;;
10410;SDS011;5251;52.112;8.606;2023-07-29T03:57:41;1.85;;;1.70;;
10410;SDS011;5251;52.112;8.606;2023-07-29T04:00:07;2.10;;;1.98;;
10410;SDS011;5251;52.112;8.606;2023-07-29T04:02:34;1.90;;;1.80;;
10410;SDS011;5251;52.112;8.606;2023-07-29T04:05:02;2.75;;;1.67;;
10410;SDS011;5251;52.112;8.606;2023-07-29T04:07:29;1.95;;;1.85;;
10410;SDS011;5251;52.112;8.606;2023-07-29T04:09:54;2.10;;;1.90;;
10410;SDS011;5251;52.112;8.606;2023-07-29T04:12:20;1.85;;;1.75;;
10410;SDS011;5251;52.112;8.606;2023-07-29T04:14:46;2.20;;;2.00;;
10410;SDS011;5251;52.112;8.606;2023-07-29T04:17:12;1.98;;;1.80;;
10410;SDS011;5251;52.112;8.606;2023-07-29T04:19:37;1.90;;;1.80;;
10410;SDS011;5251;52.112;8.606;2023-07-29T04:22:03;1.73;;;1.63;;
10410;SDS011;5251;52.112;8.606;2023-07-29T04:24:29;1.80;;;1.70;;
10410;SDS011;5251;52.112;8.606;2023-07-29T04:26:54;2.10;;;2.00;;
10410;SDS011;5251;52.112;8.606;2023-07-29T04:29:20;1.95;;;1.70;;
10410;SDS011;5251;52.112;8.606;2023-07-29T04:31:47;1.95;;;1.85;;
10410;SDS011;5251;52.112;8.606;2023-07-29T04:34:13;1.80;;;1.70;;
10410;SDS011;5251;52.112;8.606;2023-07-29T04:36:39;2.10;;;2.00;;
10410;SDS011;5251;52.112;8.606;2023-07-29T04:39:04;1.63;;;1.52;;
10410;SDS011;5251;52.112;8.606;2023-07-29T04:41:30;1.67;;;1.58;;
10410;SDS011;5251;52.112;8.606;2023-07-29T04:43:56;1.85;;;1.75;;
10410;SDS011;5251;52.112;8.606;2023-07-29T04:46:21;1.60;;;1.50;;
10410;SDS011;5251;52.112;8.606;2023-07-29T04:48:47;1.70;;;1.60;;
10410;SDS011;5251;52.112;8.606;2023-07-29T04:51:12;1.73;;;1.63;;
10410;SDS011;5251;52.112;8.606;2023-07-29T04:53:38;1.90;;;1.80;;
10410;SDS011;5251;52.112;8.606;2023-07-29T04:56:04;2.22;;;1.75;;
10410;SDS011;5251;52.112;8.606;2023-07-29T04:58:29;1.50;;;1.40;;
10410;SDS011;5251;52.112;8.606;2023-07-29T05:00:55;1.70;;;1.60;;
10410;SDS011;5251;52.112;8.606;2023-07-29T05:03:21;2.40;;;1.88;;
10410;SDS011;5251;52.112;8.606;2023-07-29T05:05:47;1.90;;;1.80;;
10410;SDS011;5251;52.112;8.606;2023-07-29T05:08:12;1.80;;;1.70;;
10410;SDS011;5251;52.112;8.606;2023-07-29T05:10:38;1.70;;;1.60;;
10410;SDS011;5251;52.112;8.606;2023-07-29T05:13:03;3.65;;;1.70;;
10410;SDS011;5251;52.112;8.606;2023-07-29T05:15:29;1.60;;;1.50;;
10410;SDS011;5251;52.112;8.606;2023-07-29T05:17:55;1.83;;;1.73;;
10410;SDS011;5251;52.112;8.606;2023-07-29T05:20:21;2.72;;;1.80;;
10410;SDS011;5251;52.112;8.606;2023-07-29T05:22:46;1.98;;;1.77;;
10410;SDS011;5251;52.112;8.606;2023-07-29T05:25:12;3.70;;;1.70;;
10410;SDS011;5251;52.112;8.606;2023-07-29T05:27:37;1.77;;;1.67;;
10410;SDS011;5251;52.112;8.606;2023-07-29T05:30:03;2.03;;;1.88;;
10410;SDS011;5251;52.112;8.606;2023-07-29T05:32:29;2.28;;;1.67;;
10410;SDS011;5251;52.112;8.606;2023-07-29T05:34:55;2.15;;;1.85;;
10410;SDS011;5251;52.112;8.606;2023-07-29T05:37:20;1.77;;;1.67;;
10410;SDS011;5251;52.112;8.606;2023-07-29T05:39:46;1.80;;;1.58;;
10410;SDS011;5251;52.112;8.606;2023-07-29T05:42:11;2.75;;;1.65;;
10410;SDS011;5251;52.112;8.606;2023-07-29T05:44:37;1.63;;;1.50;;
10410;SDS011;5251;52.112;8.606;2023-07-29T05:47:02;2.33;;;1.70;;
10410;SDS011;5251;52.112;8.606;2023-07-29T05:49:28;3.47;;;1.80;;
10410;SDS011;5251;52.112;8.606;2023-07-29T05:51:54;1.60;;;1.50;;
10410;SDS011;5251;52.112;8.606;2023-07-29T05:54:19;1.88;;;1.50;;
10410;SDS011;5251;52.112;8.606;2023-07-29T05:56:45;1.50;;;1.40;;
10410;SDS011;5251;52.112;8.606;2023-07-29T05:59:11;1.70;;;1.60;;
10410;SDS011;5251;52.112;8.606;2023-07-29T06:01:36;1.45;;;1.35;;
10410;SDS011;5251;52.112;8.606;2023-07-29T06:04:02;1.70;;;1.60;;
10410;SDS011;5251;52.112;8.606;2023-07-29T06:06:27;1.50;;;1.40;;
10410;SDS011;5251;52.112;8.606;2023-07-29T06:08:53;1.83;;;1.70;;
10410;SDS011;5251;52.112;8.606;2023-07-29T06:11:19;2.97;;;1.88;;
10410;SDS011;5251;52.112;8.606;2023-07-29T06:13:45;1.88;;;1.77;;
10410;SDS011;5251;52.112;8.606;2023-07-29T06:16:12;1.70;;;1.60;;
10410;SDS011;5251;52.112;8.606;2023-07-29T06:18:37;1.80;;;1.70;;
10410;SDS011;5251;52.112;8.606;2023-07-29T06:21:03;2.50;;;1.77;;
10410;SDS011;5251;52.112;8.606;2023-07-29T06:23:32;2.40;;;2.20;;
10410;SDS011;5251;52.112;8.606;2023-07-29T06:25:58;2.47;;;2.28;;
10410;SDS011;5251;52.112;8.606;2023-07-29T06:28:25;3.35;;;2.00;;
10410;SDS011;5251;52.112;8.606;2023-07-29T06:30:51;2.47;;;2.28;;
10410;SDS011;5251;52.112;8.606;2023-07-29T06:33:17;2.30;;;2.10;;
10410;SDS011;5251;52.112;8.606;2023-07-29T06:35:43;2.55;;;2.35;;
10410;SDS011;5251;52.112;8.606;2023-07-29T06:38:08;1.98;;;1.88;;
10410;SDS011;5251;52.112;8.606;2023-07-29T06:40:34;2.00;;;1.90;;
10410;SDS011;5251;52.112;8.606;2023-07-29T06:42:59;2.38;;;2.17;;
10410;SDS011;5251;52.112;8.606;2023-07-29T06:45:25;2.33;;;2.10;;
10410;SDS011;5251;52.112;8.606;2023-07-29T06:47:51;2.30;;;2.10;;
10410;SDS011;5251;52.112;8.606;2023-07-29T06:50:17;2.25;;;2.03;;
10410;SDS011;5251;52.112;8.606;2023-07-29T06:52:42;2.40;;;2.20;;
10410;SDS011;5251;52.112;8.606;2023-07-29T06:55:08;3.28;;;2.33;;
10410;SDS011;5251;52.112;8.606;2023-07-29T06:57:34;2.75;;;2.50;;
10410;SDS011;5251;52.112;8.606;2023-07-29T06:59:59;2.85;;;2.58;;
10410;SDS011;5251;52.112;8.606;2023-07-29T07:02:25;3.72;;;2.80;;
10410;SDS011;5251;52.112;8.606;2023-07-29T07:04:51;3.17;;;2.53;;
10410;SDS011;5251;52.112;8.606;2023-07-29T07:07:16;3.40;;;3.08;;
10410;SDS011;5251;52.112;8.606;2023-07-29T07:09:42;2.92;;;2.72;;
10410;SDS011;5251;52.112;8.606;2023-07-29T07:12:07;3.70;;;3.40;;
10410;SDS011;5251;52.112;8.606;2023-07-29T07:14:33;3.80;;;3.50;;
10410;SDS011;5251;52.112;8.606;2023-07-29T07:16:58;4.32;;;4.03;;
10410;SDS011;5251;52.112;8.606;2023-07-29T07:19:24;4.50;;;4.20;;
10410;SDS011;5251;52.112;8.606;2023-07-29T07:21:50;5.00;;;4.60;;
10410;SDS011;5251;52.112;8.606;2023-07-29T07:24:15;5.90;;;5.18;;
10410;SDS011;5251;52.112;8.606;2023-07-29T07:26:41;6.53;;;5.20;;
10410;SDS011;5251;52.112;8.606;2023-07-29T07:29:06;6.88;;;6.15;;
10410;SDS011;5251;52.112;8.606;2023-07-29T07:31:33;7.90;;;7.10;;
10410;SDS011;5251;52.112;8.606;2023-07-29T07:33:59;8.52;;;7.63;;
10410;SDS011;5251;52.112;8.606;2023-07-29T07:36:27;8.80;;;7.93;;
10410;SDS011;5251;52.112;8.606;2023-07-29T07:38:53;9.00;;;8.20;;
10410;SDS011;5251;52.112;8.606;2023-07-29T07:41:19;8.45;;;7.65;;
10410;SDS011;5251;52.112;8.606;2023-07-29T07:43:44;7.50;;;6.80;;
10410;SDS011;5251;52.112;8.606;2023-07-29T07:46:10;7.88;;;7.07;;
10410;SDS011;5251;52.112;8.606;2023-07-29T07:48:35;7.00;;;6.40;;
10410;SDS011;5251;52.112;8.606;2023-07-29T07:51:09;6.70;;;6.10;;
10410;SDS011;5251;52.112;8.606;2023-07-29T07:53:38;6.13;;;5.63;;
10410;SDS011;5251;52.112;8.606;2023-07-29T07:56:04;5.75;;;5.18;;
10410;SDS011;5251;52.112;8.606;2023-07-29T07:58:29;5.57;;;5.07;;
10410;SDS011;5251;52.112;8.606;2023-07-29T08:01:02;4.70;;;4.30;;
10410;SDS011;5251;52.112;8.606;2023-07-29T08:03:32;4.85;;;4.47;;
10410;SDS011;5251;52.112;8.606;2023-07-29T08:05:58;3.83;;;3.55;;
10410;SDS011;5251;52.112;8.606;2023-07-29T08:08:25;3.45;;;3.20;;
10410;SDS011;5251;52.112;8.606;2023-07-29T08:10:54;3.38;;;3.17;;
10410;SDS011;5251;52.112;8.606;2023-07-29T08:13:24;2.97;;;2.70;;
10410;SDS011;5251;52.112;8.606;2023-07-29T08:15:51;2.75;;;2.55;;
10410;SDS011;5251;52.112;8.606;2023-07-29T08:18:18;2.80;;;2.60;;
10410;SDS011;5251;52.112;8.606;2023-07-29T08:20:53;2.80;;;2.47;;
10410;SDS011;5251;52.112;8.606;2023-07-29T08:23:26;2.55;;;2.35;;
10410;SDS011;5251;52.112;8.606;2023-07-29T08:25:52;2.35;;;2.15;;
10410;SDS011;5251;52.112;8.606;2023-07-29T08:28:19;1.88;;;1.77;;
10410;SDS011;5251;52.112;8.606;2023-07-29T08:30:45;2.20;;;2.00;;
10410;SDS011;5251;52.112;8.606;2023-07-29T08:33:10;1.90;;;1.70;;
10410;SDS011;5251;52.112;8.606;2023-07-29T08:35:36;1.70;;;1.60;;
10410;SDS011;5251;52.112;8.606;2023-07-29T08:38:02;1.80;;;1.70;;
10410;SDS011;5251;52.112;8.606;2023-07-29T08:40:29;1.98;;;1.88;;
10410;SDS011;5251;52.112;8.606;2023-07-29T08:42:56;1.85;;;1.75;;
10410;SDS011;5251;52.112;8.606;2023-07-29T08:45:26;1.70;;;1.60;;
10410;SDS011;5251;52.112;8.606;2023-07-29T08:47:52;1.70;;;1.60;;
10410;SDS011;5251;52.112;8.606;2023-07-29T08:50:24;2.33;;;1.67;;
10410;SDS011;5251;52.112;8.606;2023-07-29T08:52:49;2.20;;;1.75;;
10410;SDS011;5251;52.112;8.606;2023-07-29T08:55:17;2.25;;;1.77;;
10410;SDS011;5251;52.112;8.606;2023-07-29T08:57:43;1.70;;;1.60;;
10410;SDS011;5251;52.112;8.606;2023-07-29T09:00:09;1.77;;;1.67;;
10410;SDS011;5251;52.112;8.606;2023-07-29T09:02:36;1.83;;;1.58;;
10410;SDS011;5251;52.112;8.606;2023-07-29T09:05:01;1.70;;;1.60;;
10410;SDS011;5251;52.112;8.606;2023-07-29T09:07:27;1.70;;;1.30;;
10410;SDS011;5251;52.112;8.606;2023-07-29T09:09:54;1.30;;;1.23;;
10410;SDS011;5251;52.112;8.606;2023-07-29T09:12:19;1.77;;;1.27;;
10410;SDS011;5251;52.112;8.606;2023-07-29T09:14:46;1.00;;;1.00;;
10410;SDS011;5251;52.112;8.606;2023-07-29T09:17:11;1.27;;;1.17;;
10410;SDS011;5251;52.112;8.606;2023-07-29T09:19:39;1.10;;;1.00;;
10410;SDS011;5251;52.112;8.606;2023-07-29T09:22:04;1.20;;;1.10;;
10410;SDS011;5251;52.112;8.606;2023-07-29T09:24:30;0.90;;;0.90;;
10410;SDS011;5251;52.112;8.606;2023-07-29T09:26:57;1.30;;;1.20;;
10410;SDS011;5251;52.112;8.606;2023-07-29T09:29:23;2.05;;;1.10;;
10410;SDS011;5251;52.112;8.606;2023-07-29T09:31:49;1.35;;;1.17;;
10410;SDS011;5251;52.112;8.606;2023-07-29T09:34:15;1.00;;;1.00;;
10410;SDS011;5251;52.112;8.606;2023-07-29T09:36:42;1.55;;;1.00;;
10410;SDS011;5251;52.112;8.606;2023-07-29T09:39:10;1.00;;;0.90;;
10410;SDS011;5251;52.112;8.606;2023-07-29T09:41:38;1.10;;;1.00;;
10410;SDS011;5251;52.112;8.606;2023-07-29T09:44:03;0.80;;;0.80;;
10410;SDS011;5251;52.112;8.606;2023-07-29T09:46:33;1.00;;;1.00;;
10410;SDS011;5251;52.112;8.606;2023-07-29T09:49:03;0.93;;;0.93;;
10410;SDS011;5251;52.112;8.606;2023-07-29T09:51:30;1.33;;;0.95;;
10410;SDS011;5251;52.112;8.606;2023-07-29T09:53:56;1.27;;;1.00;;
10410;SDS011;5251;52.112;8.606;2023-07-29T09:56:24;1.58;;;1.00;;
10410;SDS011;5251;52.112;8.606;2023-07-29T09:58:51;1.10;;;1.02;;
10410;SDS011;5251;52.112;8.606;2023-07-29T10:01:17;0.80;;;0.80;;
10410;SDS011;5251;52.112;8.606;2023-07-29T10:03:43;1.63;;;0.80;;
10410;SDS011;5251;52.112;8.606;2023-07-29T10:06:10;0.90;;;0.90;;
10410;SDS011;5251;52.112;8.606;2023-07-29T10:08:36;2.15;;;1.00;;
10410;SDS011;5251;52.112;8.606;2023-07-29T10:11:05;1.00;;;1.00;;
10410;SDS011;5251;52.112;8.606;2023-07-29T10:13:32;1.42;;;0.90;;
10410;SDS011;5251;52.112;8.606;2023-07-29T10:15:58;0.70;;;0.70;;
10410;SDS011;5251;52.112;8.606;2023-07-29T10:18:27;1.50;;;1.10;;
10410;SDS011;5251;52.112;8.606;2023-07-29T10:20:53;1.50;;;1.00;;
10410;SDS011;5251;52.112;8.606;2023-07-29T10:23:21;0.95;;;0.93;;
10410;SDS011;5251;52.112;8.606;2023-07-29T10:28:29;0.85;;;0.85;;
10410;SDS011;5251;52.112;8.606;2023-07-29T10:30:57;1.80;;;0.90;;
10410;SDS011;5251;52.112;8.606;2023-07-29T10:33:23;1.77;;;1.02;;
10410;SDS011;5251;52.112;8.606;2023-07-29T10:35:50;1.10;;;1.10;;
10410;SDS011;5251;52.112;8.606;2023-07-29T10:38:17;0.93;;;0.82;;
10410;SDS011;5251;52.112;8.606;2023-07-29T10:40:47;1.00;;;1.00;;
10410;SDS011;5251;52.112;8.606;2023-07-29T10:43:19;0.90;;;0.90;;
10410;SDS011;5251;52.112;8.606;2023-07-29T10:45:49;0.80;;;0.80;;
10410;SDS011;5251;52.112;8.606;2023-07-29T10:54:00;0.95;;;0.95;;
10410;SDS011;5251;52.112;8.606;2023-07-29T10:56:41;1.05;;;0.98;;
10410;SDS011;5251;52.112;8.606;2023-07-29T11:01:38;1.05;;;1.00;;
10410;SDS011;5251;52.112;8.606;2023-07-29T11:17:55;0.93;;;0.93;;
10410;SDS011;5251;52.112;8.606;2023-07-29T11:20:26;0.90;;;0.90;;
10410;SDS011;5251;52.112;8.606;2023-07-29T11:22:53;1.40;;;0.90;;
10410;SDS011;5251;52.112;8.606;2023-07-29T11:25:20;1.30;;;1.00;;
10410;SDS011;5251;52.112;8.606;2023-07-29T11:27:47;0.88;;;0.88;;
10410;SDS011;5251;52.112;8.606;2023-07-29T11:30:13;1.00;;;1.00;;
10410;SDS011;5251;52.112;8.606;2023-07-29T11:32:40;0.88;;;0.88;;
10410;SDS011;5251;52.112;8.606;2023-07-29T11:37:35;0.90;;;0.90;;
10410;SDS011;5251;52.112;8.606;2023-07-29T11:40:01;0.80;;;0.80;;
10410;SDS011;5251;52.112;8.606;2023-07-29T11:42:28;0.80;;;0.80;;
10410;SDS011;5251;52.112;8.606;2023-07-29T11:44:56;0.82;;;0.82;;
10410;SDS011;5251;52.112;8.606;2023-07-29T11:47:23;1.13;;;1.00;;
10410;SDS011;5251;52.112;8.606;2023-07-29T11:49:48;0.80;;;0.80;;
10410;SDS011;5251;52.112;8.606;2023-07-29T11:52:14;0.90;;;0.90;;
10410;SDS011;5251;52.112;8.606;2023-07-29T11:54:44;0.90;;;0.90;;
10410;SDS011;5251;52.112;8.606;2023-07-29T11:57:10;0.95;;;0.95;;
10410;SDS011;5251;52.112;8.606;2023-07-29T11:59:36;1.13;;;1.02;;
10410;SDS011;5251;52.112;8.606;2023-07-29T12:02:05;0.95;;;0.95;;
10410;SDS011;5251;52.112;8.606;2023-07-29T12:04:36;1.00;;;0.95;;
10410;SDS011;5251;52.112;8.606;2023-07-29T12:07:03;0.90;;;0.90;;
10410;SDS011;5251;52.112;8.606;2023-07-29T12:09:29;0.90;;;0.90;;
10410;SDS011;5251;52.112;8.606;2023-07-29T12:11:55;1.25;;;0.95;;
10410;SDS011;5251;52.112;8.606;2023-07-29T12:14:21;1.10;;;0.95;;
10410;SDS011;5251;52.112;8.606;2023-07-29T12:16:50;0.90;;;0.90;;
10410;SDS011;5251;52.112;8.606;2023-07-29T12:19:17;1.10;;;1.10;;
10410;SDS011;5251;52.112;8.606;2023-07-29T12:21:43;1.00;;;1.00;;
10410;SDS011;5251;52.112;8.606;2023-07-29T12:24:08;1.10;;;1.00;;
10410;SDS011;5251;52.112;8.606;2023-07-29T12:26:35;0.90;;;0.90;;
10410;SDS011;5251;52.112;8.606;2023-07-29T12:29:14;0.98;;;0.93;;
10410;SDS011;5251;52.112;8.606;2023-07-29T12:31:41;0.98;;;0.98;;
10410;SDS011;5251;52.112;8.606;2023-07-29T12:34:07;0.93;;;0.93;;
10410;SDS011;5251;52.112;8.606;2023-07-29T12:36:41;0.90;;;0.90;;
10410;SDS011;5251;52.112;8.606;2023-07-29T12:41:49;1.17;;;1.08;;
10410;SDS011;5251;52.112;8.606;2023-07-29T12:44:16;1.23;;;1.10;;
10410;SDS011;5251;52.112;8.606;2023-07-29T12:46:42;1.10;;;1.10;;
10410;SDS011;5251;52.112;8.606;2023-07-29T12:49:08;1.10;;;1.10;;
10410;SDS011;5251;52.112;8.606;2023-07-29T12:51:33;1.10;;;1.10;;
10410;SDS011;5251;52.112;8.606;2023-07-29T12:53:59;1.30;;;1.20;;
10410;SDS011;5251;52.112;8.606;2023-07-29T12:56:26;1.30;;;1.20;;
10410;SDS011;5251;52.112;8.606;2023-07-29T12:58:51;1.10;;;1.10;;
10410;SDS011;5251;52.112;8.606;2023-07-29T13:01:17;1.15;;;1.10;;
10410;SDS011;5251;52.112;8.606;2023-07-29T13:03:43;1.70;;;1.17;;
10410;SDS011;5251;52.112;8.606;2023-07-29T13:06:09;1.13;;;1.08;;
10410;SDS011;5251;52.112;8.606;2023-07-29T13:08:35;1.10;;;1.10;;
10410;SDS011;5251;52.112;8.606;2023-07-29T13:11:00;1.38;;;1.17;;
10410;SDS011;5251;52.112;8.606;2023-07-29T13:13:26;0.98;;;0.95;;
10410;SDS011;5251;52.112;8.606;2023-07-29T13:15:51;2.08;;;1.17;;
10410;SDS011;5251;52.112;8.606;2023-07-29T13:18:17;1.30;;;1.20;;
10410;SDS011;5251;52.112;8.606;2023-07-29T13:20:43;1.70;;;1.10;;
10410;SDS011;5251;52.112;8.606;2023-07-29T13:23:09;1.17;;;1.10;;
10410;SDS011;5251;52.112;8.606;2023-07-29T13:25:34;1.00;;;1.00;;
10410;SDS011;5251;52.112;8.606;2023-07-29T13:28:00;1.00;;;1.00;;
10410;SDS011;5251;52.112;8.606;2023-07-29T13:30:25;1.00;;;1.00;;
10410;SDS011;5251;52.112;8.606;2023-07-29T13:32:51;1.10;;;1.00;;
10410;SDS011;5251;52.112;8.606;2023-07-29T13:35:16;1.23;;;1.13;;
10410;SDS011;5251;52.112;8.606;2023-07-29T13:37:42;1.25;;;1.15;;
10410;SDS011;5251;52.112;8.606;2023-07-29T13:40:08;1.05;;;1.00;;
10410;SDS011;5251;52.112;8.606;2023-07-29T13:42:33;1.60;;;1.20;;
10410;SDS011;5251;52.112;8.606;2023-07-29T13:44:59;1.08;;;1.08;;
10410;SDS011;5251;52.112;8.606;2023-07-29T13:47:25;1.05;;;1.02;;
10410;SDS011;5251;52.112;8.606;2023-07-29T13:49:50;0.95;;;0.95;;
10410;SDS011;5251;52.112;8.606;2023-07-29T13:52:16;1.10;;;1.10;;
10410;SDS011;5251;52.112;8.606;2023-07-29T13:54:41;1.23;;;1.10;;
10410;SDS011;5251;52.112;8.606;2023-07-29T13:57:07;1.13;;;1.08;;
10410;SDS011;5251;52.112;8.606;2023-07-29T13:59:35;2.15;;;1.17;;
10410;SDS011;5251;52.112;8.606;2023-07-29T14:02:03;1.30;;;1.20;;
10410;SDS011;5251;52.112;8.606;2023-07-29T14:04:29;1.13;;;1.10;;
10410;SDS011;5251;52.112;8.606;2023-07-29T14:06:55;1.00;;;1.00;;
10410;SDS011;5251;52.112;8.606;2023-07-29T14:09:21;1.30;;;1.20;;
10410;SDS011;5251;52.112;8.606;2023-07-29T14:11:46;1.88;;;1.10;;
10410;SDS011;5251;52.112;8.606;2023-07-29T14:14:12;1.00;;;1.00;;
10410;SDS011;5251;52.112;8.606;2023-07-29T14:16:37;1.38;;;1.27;;
10410;SDS011;5251;52.112;8.606;2023-07-29T14:19:04;1.60;;;1.40;;
10410;SDS011;5251;52.112;8.606;2023-07-29T14:21:29;1.50;;;1.20;;
10410;SDS011;5251;52.112;8.606;2023-07-29T14:23:55;1.30;;;1.20;;
10410;SDS011;5251;52.112;8.606;2023-07-29T14:26:20;1.10;;;1.10;;
10410;SDS011;5251;52.112;8.606;2023-07-29T14:28:46;1.27;;;1.17;;
10410;SDS011;5251;52.112;8.606;2023-07-29T14:31:11;1.50;;;1.02;;
10410;SDS011;5251;52.112;8.606;2023-07-29T14:33:38;1.20;;;1.20;;
10410;SDS011;5251;52.112;8.606;2023-07-29T14:36:04;1.15;;;1.10;;
10410;SDS011;5251;52.112;8.606;2023-07-29T14:38:29;1.30;;;1.20;;
10410;SDS011;5251;52.112;8.606;2023-07-29T14:40:55;1.35;;;1.25;;
10410;SDS011;5251;52.112;8.606;2023-07-29T14:43:21;1.65;;;1.17;;
10410;SDS011;5251;52.112;8.606;2023-07-29T14:45:48;2.47;;;1.27;;
10410;SDS011;5251;52.112;8.606;2023-07-29T14:48:14;2.45;;;1.60;;
10410;SDS011;5251;52.112;8.606;2023-07-29T14:50:39;1.42;;;1.33;;
10410;SDS011;5251;52.112;8.606;2023-07-29T14:53:05;2.42;;;1.27;;
10410;SDS011;5251;52.112;8.606;2023-07-29T14:55:30;1.40;;;1.23;;
10410;SDS011;5251;52.112;8.606;2023-07-29T14:57:56;2.45;;;1.52;;
10410;SDS011;5251;52.112;8.606;2023-07-29T15:00:21;2.38;;;1.42;;
10410;SDS011;5251;52.112;8.606;2023-07-29T15:02:47;4.30;;;2.20;;
10410;SDS011;5251;52.112;8.606;2023-07-29T15:05:13;10.80;;;2.80;;
10410;SDS011;5251;52.112;8.606;2023-07-29T15:07:39;7.32;;;3.08;;
10410;SDS011;5251;52.112;8.606;2023-07-29T15:10:05;2.05;;;1.50;;
10410;SDS011;5251;52.112;8.606;2023-07-29T15:12:31;5.05;;;2.90;;
10410;SDS011;5251;52.112;8.606;2023-07-29T15:14:56;2.70;;;2.00;;
10410;SDS011;5251;52.112;8.606;2023-07-29T15:17:22;4.03;;;1.65;;
10410;SDS011;5251;52.112;8.606;2023-07-29T15:19:47;2.05;;;1.70;;
10410;SDS011;5251;52.112;8.606;2023-07-29T15:22:16;2.50;;;1.65;;
10410;SDS011;5251;52.112;8.606;2023-07-29T15:24:41;6.63;;;2.63;;
10410;SDS011;5251;52.112;8.606;2023-07-29T15:27:08;5.35;;;2.03;;
10410;SDS011;5251;52.112;8.606;2023-07-29T15:29:35;2.05;;;1.52;;